createdAt,value
2023-01-06T05:18:50.726Z,101038.00
2023-01-06T09:18:28.482Z,101151.69
2023-01-06T09:20:30.072Z,101150.06
2023-01-06T09:22:31.988Z,101148.13
2023-01-06T09:24:33.658Z,101153.59
2023-01-06T09:26:35.204Z,101137.41
2023-01-06T09:28:36.833Z,101133.03
2023-01-06T09:30:38.533Z,101135.72
2023-01-06T09:32:40.116Z,101134.63
2023-01-06T09:34:43.103Z,101145.75
2023-01-06T09:36:45.213Z,101136.53
2023-01-06T09:38:46.862Z,101150.84
2023-01-06T09:41:04.390Z,101154.03
2023-01-06T09:43:17.052Z,101162.16
2023-01-06T09:45:20.792Z,101167.56
2023-01-06T09:47:32.345Z,101168.34
2023-01-06T09:49:42.104Z,101169.78
2023-01-06T09:51:45.734Z,101168.69
2023-01-06T09:53:54.561Z,101165.94
2023-01-06T09:55:59.408Z,101169.19
2023-01-06T09:58:05.873Z,101168.34
2023-01-06T10:00:19.660Z,101162.69
2023-01-06T10:02:26.397Z,101159.19
2023-01-06T10:04:29.791Z,101156.25
2023-01-06T10:06:36.465Z,101154.63
2023-01-06T10:08:48.736Z,101151.38
2023-01-06T10:11:02.574Z,101156.50
2023-01-06T10:13:21.461Z,101160.78
2023-01-06T10:15:33.441Z,101168.34
2023-01-06T10:17:50.300Z,101171.03
2023-01-06T10:20:02.918Z,101168.84
2023-01-06T10:22:09.213Z,101170.47
2023-01-06T10:24:34.047Z,101174.22
2023-01-06T10:26:43.756Z,101167.44
2023-01-06T10:28:47.733Z,101170.97
2023-01-06T10:30:52.784Z,101161.78
2023-01-06T10:32:54.400Z,101165.81
2023-01-06T10:34:57.691Z,101160.41
2023-01-06T10:37:06.597Z,101166.91
2023-01-06T10:39:16.481Z,101168.50
2023-01-06T10:41:26.679Z,101165.75
2023-01-06T10:43:28.373Z,101167.44
2023-01-06T10:45:34.263Z,101168.75
2023-01-06T10:47:35.928Z,101167.13
2023-01-06T10:49:37.829Z,101168.75
2023-01-06T10:51:41.041Z,101170.38
2023-01-06T10:53:43.045Z,101161.94
2023-01-06T10:55:53.084Z,101168.69
2023-01-06T10:57:59.959Z,101168.41
2023-01-06T11:00:16.702Z,101167.66
2023-01-06T11:02:24.642Z,101168.75
2023-01-06T11:04:27.632Z,101165.13
2023-01-06T11:06:30.461Z,101161.38
2023-01-06T11:08:32.635Z,101168.69
2023-01-06T11:10:40.338Z,101171.53
2023-01-06T11:12:45.950Z,101169.41
2023-01-06T11:14:55.666Z,101165.84
2023-01-06T11:17:00.099Z,101165.75
2023-01-06T11:19:04.789Z,101166.53
2023-01-06T11:21:09.541Z,101168.16
2023-01-06T11:23:20.985Z,101146.47
2023-01-06T11:25:26.100Z,101140.94
2023-01-06T11:27:27.773Z,101149.53
2023-01-06T11:29:32.975Z,101145.03
2023-01-06T11:31:34.760Z,101144.72
2023-01-06T11:33:46.088Z,101142.78
2023-01-06T11:35:48.643Z,101139.03
2023-01-06T11:37:57.918Z,101135.19
2023-01-06T11:40:10.309Z,101131.97
2023-01-06T11:42:14.514Z,101134.34
2023-01-06T11:44:20.668Z,101129.38
2023-01-06T11:46:25.610Z,101135.06
2023-01-06T11:48:31.203Z,101135.84
2023-01-06T11:50:32.970Z,101139.44
2023-01-06T11:52:34.609Z,101137.00
2023-01-06T11:54:38.968Z,101127.19
2023-01-06T11:56:40.689Z,101128.59
2023-01-06T11:58:54.402Z,101115.59
2023-01-06T12:01:01.893Z,101116.44
2023-01-06T12:03:14.104Z,101115.34
2023-01-06T12:05:25.490Z,101114.50
2023-01-06T12:07:32.777Z,101104.97
2023-01-06T12:09:38.793Z,101109.59
2023-01-06T12:11:46.181Z,101096.03
2023-01-06T12:14:08.320Z,101098.16
2023-01-06T12:16:17.258Z,101085.13
2023-01-06T12:18:24.084Z,101088.19
2023-01-06T12:20:28.960Z,101080.38
2023-01-06T12:22:37.109Z,101087.72
2023-01-06T12:24:39.669Z,101086.94
2023-01-06T12:26:43.386Z,101081.88
2023-01-06T12:28:47.379Z,101083.72
2023-01-06T12:30:54.790Z,101095.13
2023-01-06T12:33:03.728Z,101092.63
2023-01-06T12:35:14.238Z,101099.44
2023-01-06T12:37:22.264Z,101100.53
2023-01-06T12:39:33.307Z,101101.63
2023-01-06T12:41:39.666Z,101103.47
2023-01-06T12:43:49.691Z,101110.72
2023-01-06T12:45:57.801Z,101109.84
2023-01-06T12:48:07.815Z,101100.06
2023-01-06T12:50:19.537Z,101102.78
2023-01-06T12:52:26.746Z,101103.13
2023-01-06T12:54:33.456Z,101100.34
2023-01-06T12:56:52.161Z,101104.63
2023-01-06T12:59:07.404Z,101105.41
2023-01-06T13:01:16.409Z,101113.28
2023-01-06T13:03:56.966Z,101119.56
2023-01-06T13:06:24.957Z,101115.81
2023-01-06T13:08:42.733Z,101118.53
2023-01-06T13:10:48.568Z,101112.44
2023-01-06T13:12:58.343Z,101108.00
2023-01-06T13:15:07.714Z,101115.34
2023-01-06T13:17:15.934Z,101114.75
2023-01-06T13:19:30.678Z,101111.78
2023-01-06T13:21:37.088Z,101108.22
2023-01-06T13:28:15.421Z,101098.78
2023-01-06T13:30:37.689Z,101107.16
2023-01-06T13:32:52.495Z,101105.75
2023-01-06T13:35:13.583Z,101108.72
2023-01-06T13:37:35.107Z,101104.94
2023-01-06T13:39:39.353Z,101108.97
2023-01-06T13:41:45.911Z,101116.53
2023-01-06T13:43:53.775Z,101108.09
2023-01-06T13:45:58.916Z,101115.00
2023-01-06T13:48:02.728Z,101112.28
2023-01-06T13:50:05.660Z,101113.84
2023-01-06T13:52:12.717Z,101108.09
2023-01-06T13:54:51.427Z,101116.22
2023-01-06T13:57:34.912Z,101110.56
2023-01-06T13:59:48.777Z,101119.72
2023-01-06T14:01:51.898Z,101112.94
2023-01-06T17:47:49.219Z,101155.16
2023-01-06T17:49:53.546Z,101150.25
2023-01-06T17:51:56.102Z,101156.97
2023-01-06T17:53:58.957Z,101160.50
2023-01-06T17:56:02.367Z,101151.84
2023-01-06T17:58:10.071Z,101165.09
2023-01-06T18:00:21.613Z,101155.91
2023-01-06T18:02:39.378Z,101151.03
2023-01-06T18:04:42.657Z,101156.38
2023-01-06T18:06:46.113Z,101159.94
2023-01-06T18:08:49.986Z,101160.22
2023-01-06T18:10:53.821Z,101163.72
2023-01-06T18:12:56.778Z,101152.94
2023-01-06T18:14:58.815Z,101151.03
2023-01-06T18:17:15.835Z,101151.84
2023-01-06T18:19:27.586Z,101154.56
2023-01-06T18:21:36.727Z,101149.41
2023-01-06T18:23:38.582Z,101152.34
2023-01-06T18:25:41.750Z,101149.41
2023-01-06T18:27:47.297Z,101143.44
2023-01-06T18:29:56.492Z,101146.44
2023-01-06T18:32:21.978Z,101151.56
2023-01-06T18:34:41.339Z,101155.66
2023-01-06T18:36:49.661Z,101157.56
2023-01-06T18:38:51.770Z,101162.69
2023-01-06T18:40:53.783Z,101156.44
2023-01-06T18:43:01.946Z,101156.97
2023-01-06T18:45:21.088Z,101156.19
2023-01-06T18:47:23.790Z,101155.94
2023-01-06T18:49:34.958Z,101153.47
2023-01-06T18:51:43.828Z,101155.34
2023-01-06T18:53:49.109Z,101158.59
2023-01-06T18:55:53.129Z,101152.41
2023-01-06T18:57:59.298Z,101157.81
2023-01-06T19:00:38.277Z,101151.63
2023-01-06T19:02:40.355Z,101150.25
2023-01-06T19:04:42.356Z,101149.16
2023-01-06T19:06:46.659Z,101152.47
2023-01-06T19:08:50.282Z,101166.00
2023-01-06T19:10:53.253Z,101170.84
2023-01-06T19:12:59.133Z,101166.50
2023-01-06T19:15:15.449Z,101165.09
2023-01-06T19:17:22.372Z,101168.03
2023-01-06T19:19:33.945Z,101165.88
2023-01-06T19:21:46.123Z,101152.34
2023-01-06T19:23:55.082Z,101159.63
2023-01-06T19:26:04.800Z,101156.66
2023-01-06T19:28:15.757Z,101162.09
2023-01-06T19:30:38.418Z,101168.28
2023-01-06T19:32:40.524Z,101168.00
2023-01-06T19:34:42.587Z,101169.88
2023-01-06T19:36:45.627Z,101176.41
2023-01-06T19:38:49.306Z,101173.69
2023-01-06T19:40:52.208Z,101174.66
2023-01-06T19:42:57.971Z,101168.97
2023-01-06T19:45:08.789Z,101174.16
2023-01-06T19:47:17.453Z,101169.63
2023-01-06T19:51:56.338Z,101163.41
2023-01-06T19:54:17.613Z,101159.09
2023-01-06T19:59:34.779Z,101157.41
2023-01-06T20:01:45.487Z,101158.78
2023-01-06T20:04:17.410Z,101160.09
2023-01-06T20:06:28.098Z,101162.81
2023-01-06T20:09:14.132Z,101160.38
2023-01-06T20:11:27.931Z,101162.56
2023-01-06T20:13:34.050Z,101161.78
2023-01-06T20:15:45.546Z,101156.66
2023-01-06T20:18:24.116Z,101145.56
2023-01-06T23:00:36.754Z,101137.19
2023-01-06T23:02:38.842Z,101136.38
2023-01-06T23:04:40.748Z,101132.81
2023-01-06T23:06:42.707Z,101128.50
2023-01-06T23:08:59.262Z,101140.69
2023-01-06T23:11:03.674Z,101128.78
2023-01-06T23:13:05.940Z,101125.00
2023-01-06T23:15:09.104Z,101127.72
2023-01-06T23:17:12.879Z,101128.75
2023-01-06T23:19:16.587Z,101130.38
2023-01-06T23:21:21.829Z,101131.47
2023-01-06T23:23:24.017Z,101129.03
2023-01-06T23:25:25.831Z,101126.84
2023-01-06T23:27:30.451Z,101136.59
2023-01-06T23:29:33.183Z,101134.94
2023-01-06T23:31:37.639Z,101122.78
2023-01-06T23:33:42.083Z,101121.19
2023-01-06T23:35:43.849Z,101126.31
2023-01-06T23:37:45.530Z,101123.34
2023-01-06T23:39:47.234Z,101124.94
2023-01-06T23:41:48.960Z,101121.44
2023-01-06T23:43:51.688Z,101114.41
2023-01-06T23:45:53.389Z,101113.06
2023-01-06T23:47:55.057Z,101114.44
2023-01-06T23:49:58.683Z,101106.88
2023-01-06T23:52:00.372Z,101114.94
2023-01-06T23:54:03.707Z,101111.16
2023-01-06T23:56:07.805Z,101108.19
2023-01-06T23:58:09.530Z,101105.22
